Pudding Creek, California
Current Conditions -  °F | °C
As of 9:56 AM on Monday 24 Nov 2014 (Local Time) from KUKI Reporting Station
Clear Clear  
Wind Chill: 49°   Ceiling: Unl
Heat Index: 49°   Visibility: 10mi
Dew Point: 40°   Wind: 0mph
Humidity: 71%   Direction: NA
Pressure: 30.43"   Gusts: NA
Location:  39.4588°N, 123.715°W
Report Text: KUKI 241756Z AUTO 00000KT 10SM CLR 09/04 A3043 RMK AO2 SLP304 T00940044 10094 20022 50005
Loading
Personal Weather Stations






























Interactive Weather Map New forecast layout! Learn more

10-Day Weather Forecast

Advertisements
Track Severe Weather on mobile